Cincinnati, Ohio
Traffic Map
Current Weather Conditions
Cincinnati, Ohio
Overcast Moderate Rain
Overcast
47°
Feels Like: 47°
Wind Chill: 47° Ceiling: 500
Heat Index: 47° Visibility: 3mi
Dew Point: 47° Wind: 0mph
Humidity: 100% Direction: ° ()
Pressure: 30.23in Gusts: 0mph
Raw Report DataKLUK 231150Z 00000KT 3SM RA BR BKN005 BKN046 OVC070 08/08 A3023 RMK AO2 SLP240 P0030 60063 70069 T00830083 10089 20078 58022
Traffic Incident Summary
Active as of:
Severity:
Category:
InformationThere was an issue retrieving the traffic information for this location. Please try a different location or try again shortly.
Advertisements